Time;durP1;ratioP1;P1;durP2;ratioP2;P2;SDS_P1;SDS_P2;PMS_P1;PMS_P2;Temp;Humidity;BMP_temperature;BMP_pressure;BME280_temperature;BME280_humidity;BME280_pressure;Samples;Min_cycle;Max_cycle;Signal;HPM_P1;HPM_P2
2022/10/19 00:00:43;;;;;;;59.05;26.30;;;;;;;15.59;100.00;95251.84;5075392;28;20123;-90
2022/10/19 00:03:08;;;;;;;58.00;24.83;;;;;;;15.64;100.00;95241.25;5091653;28;20064;-89
2022/10/19 00:05:34;;;;;;;58.20;25.90;;;;;;;15.67;100.00;95243.31;5075725;28;20392;-90
2022/10/19 00:08:00;;;;;;;58.55;26.60;;;;;;;15.51;100.00;95240.81;5074915;28;20030;-89
2022/10/19 00:10:26;;;;;;;63.85;27.42;;;;;;;15.55;100.00;95243.69;5091846;28;20024;-90
2022/10/19 00:12:52;;;;;;;64.00;28.25;;;;;;;15.79;100.00;95243.75;5058041;28;20035;-89
2022/10/19 00:15:17;;;;;;;54.10;25.33;;;;;;;15.84;100.00;95238.41;5075067;28;20028;-90
2022/10/19 00:17:43;;;;;;;40.80;18.50;;;;;;;15.79;100.00;95240.31;5077335;28;20429;-90
2022/10/19 00:20:09;;;;;;;49.85;21.13;;;;;;;15.62;100.00;95230.94;5095322;28;20123;-89
2022/10/19 00:22:34;;;;;;;41.33;20.17;;;;;;;15.54;100.00;95244.75;5078654;28;20035;-89
2022/10/19 00:25:00;;;;;;;38.53;17.50;;;;;;;15.41;100.00;95239.03;5078781;28;20016;-89
2022/10/19 00:27:25;;;;;;;31.00;15.55;;;;;;;15.42;100.00;95237.19;5062021;28;20025;-89
2022/10/19 00:29:51;;;;;;;35.72;16.98;;;;;;;15.41;100.00;95246.97;5078737;28;20025;-89
2022/10/19 00:32:16;;;;;;;35.85;16.23;;;;;;;15.43;100.00;95236.13;5078716;28;20325;-90
2022/10/19 00:34:42;;;;;;;28.35;13.93;;;;;;;15.44;100.00;95239.56;5094988;28;20031;-89
2022/10/19 00:37:07;;;;;;;31.58;10.38;;;;;;;15.24;100.00;95238.66;5078607;28;20024;-91
2022/10/19 00:39:33;;;;;;;26.27;10.73;;;;;;;15.33;100.00;95242.25;5061567;28;20027;-91
2022/10/19 00:41:58;;;;;;;20.92;8.75;;;;;;;15.27;100.00;95238.09;5078306;28;20020;-92
2022/10/19 00:44:30;;;;;;;17.17;8.23;;;;;;;15.31;100.00;95236.47;5078262;28;20017;-85
2022/10/19 00:47:01;;;;;;;30.08;9.13;;;;;;;14.91;100.00;95236.47;5090437;28;20462;-90
2022/10/19 00:49:33;;;;;;;32.25;10.77;;;;;;;14.94;100.00;95232.50;5075694;28;20146;-90
2022/10/19 00:52:19;;;;;;;28.75;10.18;;;;;;;14.90;100.00;95234.91;5100767;28;20020;-90
2022/10/19 00:54:46;;;;;;;32.78;10.60;;;;;;;15.00;100.00;95231.41;5114973;28;20040;-91
2022/10/19 00:57:14;;;;;;;28.90;10.57;;;;;;;15.07;100.00;95225.81;5115555;28;20108;-90
2022/10/19 01:03:04;;;;;;;31.45;11.98;;;;;;;15.30;100.00;95234.13;5098910;28;20051;-91
2022/10/19 01:05:41;;;;;;;;;;;;;;;;;;;;;
2022/10/19 01:08:10;;;;;;;26.17;11.27;;;;;;;15.35;100.00;95223.50;5113256;28;20019;-91
2022/10/19 01:11:00;;;;;;;28.65;12.10;;;;;;;15.24;100.00;95210.38;5097972;28;20024;-91
2022/10/19 01:13:51;;;;;;;37.50;14.02;;;;;;;14.86;100.00;95211.97;5114819;28;20099;-92
2022/10/19 01:16:27;;;;;;;32.65;12.43;;;;;;;14.82;100.00;95201.97;5098138;28;20024;-93
2022/10/19 01:19:05;;;;;;;42.50;13.10;;;;;;;14.91;100.00;95198.75;5114702;28;20127;-92
2022/10/19 01:21:57;;;;;;;30.42;12.55;;;;;;;15.02;100.00;95200.25;5114380;28;20020;-92
2022/10/19 01:24:54;;;;;;;30.08;11.38;;;;;;;15.04;100.00;95200.00;5093963;28;20126;-91
2022/10/19 01:27:29;;;;;;;38.33;12.43;;;;;;;14.87;100.00;95198.53;5060724;28;20043;-91
2022/10/19 01:30:28;;;;;;;29.05;10.55;;;;;;;15.09;100.00;95203.38;5093372;28;20024;-91
2022/10/19 01:32:53;;;;;;;30.05;10.43;;;;;;;15.08;100.00;95195.72;5077380;28;20036;-91
2022/10/19 01:35:30;;;;;;;35.53;12.30;;;;;;;15.06;100.00;95190.75;5078765;28;20311;-90
2022/10/19 01:38:16;;;;;;;28.90;9.88;;;;;;;15.10;100.00;95196.25;5077541;28;20119;-90
2022/10/19 01:41:12;;;;;;;31.27;12.20;;;;;;;15.07;100.00;95189.69;5069783;28;20445;-90
2022/10/19 01:43:41;;;;;;;39.65;15.43;;;;;;;14.93;100.00;95186.84;5077078;28;20084;-91
2022/10/19 01:46:22;;;;;;;41.42;13.45;;;;;;;14.87;100.00;95181.88;5076997;28;20076;-91
2022/10/19 01:48:55;;;;;;;33.88;12.55;;;;;;;15.00;100.00;95183.91;5060707;28;20086;-91
2022/10/19 01:51:29;;;;;;;27.73;11.25;;;;;;;15.05;100.00;95180.47;5060304;28;20024;-92
2022/10/19 01:53:56;;;;;;;27.83;10.10;;;;;;;15.02;100.00;95175.72;5076716;28;20081;-91
2022/10/19 01:56:24;;;;;;;21.48;8.65;;;;;;;15.03;100.00;95166.75;5076709;28;20074;-90
2022/10/19 01:58:50;;;;;;;30.05;10.02;;;;;;;14.72;100.00;95165.09;5076768;28;20345;-91
2022/10/19 02:01:17;;;;;;;21.48;10.23;;;;;;;14.84;100.00;95162.91;5076521;28;20115;-92
2022/10/19 02:03:43;;;;;;;23.40;10.23;;;;;;;14.77;100.00;95165.06;5093234;28;20036;-91
2022/10/19 02:06:10;;;;;;;31.15;11.85;;;;;;;14.89;100.00;95156.81;5076603;28;20023;-90
2022/10/19 02:08:56;;;;;;;22.65;10.20;;;;;;;15.01;100.00;95163.59;5076374;28;20177;-90
2022/10/19 02:11:22;;;;;;;20.63;10.18;;;;;;;14.84;100.00;95160.28;5076504;28;20169;-90
2022/10/19 02:13:52;;;;;;;27.25;10.63;;;;;;;14.84;100.00;95151.56;5076459;28;20028;-90
2022/10/19 02:16:26;;;;;;;29.27;11.30;;;;;;;14.75;100.00;95150.59;5076302;28;20047;-90
2022/10/19 02:22:13;;;;;;;26.23;11.15;;;;;;;14.60;100.00;95146.16;5077353;28;20063;-90
2022/10/19 02:24:39;;;;;;;31.27;10.38;;;;;;;14.57;100.00;95142.22;5076033;28;20048;-90
2022/10/19 02:30:26;;;;;;;16.20;7.75;;;;;;;14.72;100.00;95144.00;5077410;28;20055;-90
2022/10/19 02:32:54;;;;;;;21.88;8.18;;;;;;;14.72;100.00;95138.72;5075899;28;20024;-92
2022/10/19 02:35:19;;;;;;;28.50;8.07;;;;;;;14.75;100.00;95146.09;5075809;28;20421;-91
2022/10/19 02:37:45;;;;;;;31.63;9.20;;;;;;;14.80;100.00;95148.72;5076358;28;20032;-89
2022/10/19 02:40:11;;;;;;;22.90;8.50;;;;;;;15.12;100.00;95147.41;5091995;28;20025;-90
2022/10/19 02:42:54;;;;;;;24.67;8.35;;;;;;;15.31;100.00;95135.38;5092623;28;20070;-89
2022/10/19 02:45:35;;;;;;;25.20;9.50;;;;;;;15.37;100.00;95135.06;5059621;28;20031;-90
2022/10/19 02:48:07;;;;;;;29.58;10.63;;;;;;;15.32;100.00;95131.66;5075649;28;20267;-89
2022/10/19 02:50:33;;;;;;;23.42;9.70;;;;;;;15.17;100.00;95120.19;5075938;28;20020;-91
2022/10/19 02:52:59;;;;;;;24.02;9.55;;;;;;;14.74;100.00;95128.69;5059262;28;20074;-89
2022/10/19 02:55:24;;;;;;;29.02;10.45;;;;;;;14.74;100.00;95133.97;5059311;28;20028;-91
2022/10/19 02:57:54;;;;;;;25.52;8.75;;;;;;;14.77;100.00;95130.00;5092488;28;20024;-91
2022/10/19 03:00:22;;;;;;;15.63;8.00;;;;;;;14.77;100.00;95127.34;5059148;28;20074;-90
2022/10/19 03:02:48;;;;;;;24.75;8.65;;;;;;;14.76;100.00;95131.81;5058843;28;20063;-90
2022/10/19 03:05:13;;;;;;;24.13;7.95;;;;;;;14.74;100.00;95128.69;5059010;28;20437;-91
2022/10/19 03:07:38;;;;;;;27.67;8.30;;;;;;;14.71;100.00;95131.84;5075473;28;20035;-90
2022/10/19 03:10:04;;;;;;;29.90;9.73;;;;;;;14.71;100.00;95131.84;5075445;28;20040;-90
2022/10/19 03:12:30;;;;;;;28.15;9.75;;;;;;;14.71;100.00;95129.22;5092251;28;20115;-90
2022/10/19 03:14:55;;;;;;;18.90;8.57;;;;;;;14.73;100.00;95134.25;5075341;28;20033;-91
2022/10/19 03:17:21;;;;;;;26.10;7.53;;;;;;;14.69;100.00;95126.84;5058861;28;20024;-91
2022/10/19 03:19:46;;;;;;;22.98;8.35;;;;;;;14.72;100.00;95130.03;5059150;28;20028;-90
2022/10/19 03:22:13;;;;;;;18.75;7.68;;;;;;;14.84;100.00;95131.25;5058775;28;20066;-89
2022/10/19 03:24:38;;;;;;;20.73;7.20;;;;;;;14.95;100.00;95128.56;5092623;28;20101;-90
2022/10/19 03:27:04;;;;;;;18.50;7.28;;;;;;;15.05;100.00;95133.72;5075634;28;20032;-89
2022/10/19 03:29:29;;;;;;;31.27;10.13;;;;;;;15.07;100.00;95131.63;5075574;28;20119;-91
2022/10/19 03:31:59;;;;;;;23.48;10.38;;;;;;;15.13;100.00;95130.50;5059017;28;20180;-90
2022/10/19 03:34:27;;;;;;;18.70;8.82;;;;;;;15.11;100.00;95130.00;5059008;28;20353;-93
2022/10/19 03:36:53;;;;;;;27.42;9.38;;;;;;;15.01;100.00;95131.94;5075201;28;20029;-92
2022/10/19 03:39:18;;;;;;;25.67;9.40;;;;;;;15.01;100.00;95132.72;5075899;28;20035;-92
2022/10/19 03:41:48;;;;;;;29.27;9.23;;;;;;;15.08;100.00;95129.75;5069375;28;20123;-91
2022/10/19 03:44:14;;;;;;;26.33;8.85;;;;;;;15.12;100.00;95133.41;5059022;28;20039;-90
2022/10/19 03:46:40;;;;;;;20.85;8.07;;;;;;;15.19;100.00;95138.38;5092044;28;20426;-92
2022/10/19 03:49:06;;;;;;;22.73;9.25;;;;;;;15.26;100.00;95134.34;5059057;28;20028;-91
2022/10/19 03:51:34;;;;;;;23.30;8.45;;;;;;;15.13;100.00;95141.06;5076286;28;20124;-91
2022/10/19 03:54:03;;;;;;;19.63;8.27;;;;;;;15.11;100.00;95137.91;5079596;28;20025;-91
2022/10/19 03:56:36;;;;;;;26.58;8.75;;;;;;;14.79;100.00;95144.50;5079487;28;20032;-93
2022/10/19 03:59:23;;;;;;;;;;;;;;;;;;;;;
2022/10/19 04:01:51;;;;;;;23.42;9.68;;;;;;;14.31;100.00;95142.38;5079310;28;20024;-91
2022/10/19 04:04:25;;;;;;;35.92;9.57;;;;;;;14.28;100.00;95146.31;5079168;28;20503;-92
2022/10/19 04:06:52;;;;;;;27.45;9.02;;;;;;;14.14;100.00;95140.88;5063410;28;20318;-92
2022/10/19 04:12:40;;;;;;;26.85;9.05;;;;;;;14.10;100.00;95139.03;5079975;28;20039;-92
2022/10/19 04:15:52;;;;;;;21.20;9.23;;;;;;;14.27;100.00;95146.59;5078448;28;20445;-92
2022/10/19 04:18:18;;;;;;;27.00;10.30;;;;;;;14.41;100.00;95141.53;5078818;28;20024;-92
2022/10/19 04:20:45;;;;;;;37.85;11.70;;;;;;;14.45;100.00;95136.50;5095467;28;20040;-92
2022/10/19 04:23:14;;;;;;;29.00;13.73;;;;;;;14.52;100.00;95129.88;5079010;28;20024;-91
2022/10/19 04:25:39;;;;;;;40.72;12.80;;;;;;;14.49;100.00;95138.31;5078530;28;20448;-92
2022/10/19 04:28:05;;;;;;;31.25;12.00;;;;;;;14.47;100.00;95129.88;5078860;28;20028;-92
2022/10/19 04:30:32;;;;;;;34.67;11.57;;;;;;;14.50;100.00;95136.47;5078349;28;20043;-93
2022/10/19 04:32:58;;;;;;;20.27;9.88;;;;;;;14.48;100.00;95135.94;5095488;28;20485;-93
2022/10/19 04:35:33;;;;;;;;;;;;;;;;;;;;;
2022/10/19 04:38:01;;;;;;;30.25;13.32;;;;;;;14.42;100.00;95130.72;5093953;28;20027;-91
2022/10/19 04:40:34;;;;;;;28.75;13.95;;;;;;;14.46;100.00;95128.31;5078495;28;20118;-92
2022/10/19 04:43:02;;;;;;;36.85;14.60;;;;;;;14.47;100.00;95123.84;5078448;28;20123;-93
2022/10/19 04:45:29;;;;;;;34.70;13.90;;;;;;;14.48;100.00;95120.91;5078355;28;20016;-94
2022/10/19 04:48:00;;;;;;;31.15;13.50;;;;;;;14.42;100.00;95120.16;5078628;28;20033;-92
2022/10/19 04:50:28;;;;;;;34.15;12.20;;;;;;;14.13;100.00;95117.41;5094262;28;20028;-93
2022/10/19 04:52:56;;;;;;;29.25;12.07;;;;;;;14.28;100.00;95127.09;5078265;28;20028;-92
2022/10/19 04:55:31;;;;;;;;;;;;;;;;;;;;;
2022/10/19 04:57:59;;;;;;;23.48;10.80;;;;;;;14.36;100.00;95120.47;5093489;28;20019;-91
2022/10/19 05:00:35;;;;;;;;;;;;;;;;;;;;;
2022/10/19 05:03:10;;;;;;;;;;;;;;;;;;;;;
2022/10/19 05:05:47;;;;;;;25.38;10.60;;;;;;;14.26;100.00;95119.47;5093419;28;20008;-93
2022/10/19 05:08:13;;;;;;;22.10;10.18;;;;;;;14.28;100.00;95112.06;5077918;28;20029;-92
2022/10/19 05:10:48;;;;;;;;;;;;;;;;;;;;;
2022/10/19 05:13:14;;;;;;;32.78;11.73;;;;;;;14.20;100.00;95119.75;5093254;28;20325;-92
2022/10/19 05:15:39;;;;;;;25.05;11.30;;;;;;;14.24;100.00;95108.41;5077842;28;20127;-92
2022/10/19 05:18:07;;;;;;;24.67;11.70;;;;;;;14.39;100.00;95128.59;5077757;28;20032;-90
2022/10/19 05:20:35;;;;;;;23.48;10.80;;;;;;;14.46;100.00;95117.75;5093889;28;20379;-92
2022/10/19 05:23:00;;;;;;;23.30;10.05;;;;;;;14.37;100.00;95114.91;5093951;28;20050;-92
2022/10/19 05:25:25;;;;;;;24.38;10.52;;;;;;;14.32;100.00;95112.31;5077669;28;20020;-92
2022/10/19 05:27:52;;;;;;;34.80;11.88;;;;;;;14.16;100.00;95106.31;5077580;28;20027;-92
2022/10/19 05:30:28;;;;;;;;;;;;;;;;;;;;;
2022/10/19 05:33:01;;;;;;;25.73;11.13;;;;;;;14.24;100.00;95111.03;5092729;28;20468;-92
2022/10/19 05:35:27;;;;;;;20.27;9.55;;;;;;;14.23;100.00;95109.47;5077212;28;20048;-90
2022/10/19 05:37:54;;;;;;;23.00;9.65;;;;;;;14.28;100.00;95112.06;5093967;28;20051;-90
2022/10/19 05:40:19;;;;;;;22.77;9.35;;;;;;;14.22;100.00;95117.63;5077209;28;20043;-91
2022/10/19 05:42:47;;;;;;;20.80;10.10;;;;;;;14.28;100.00;95113.94;5093757;28;20028;-90
2022/10/19 05:45:12;;;;;;;21.00;9.35;;;;;;;14.42;100.00;95111.47;5077015;28;20437;-89
2022/10/19 05:47:38;;;;;;;25.55;8.60;;;;;;;14.40;100.00;95114.34;5094154;28;20036;-89
2022/10/19 05:50:03;;;;;;;18.67;7.38;;;;;;;14.74;100.00;95102.31;5078443;28;20078;-89
2022/10/19 05:52:29;;;;;;;13.90;6.97;;;;;;;14.91;100.00;95106.41;5076945;28;20387;-89
2022/10/19 05:54:57;;;;;;;15.90;7.50;;;;;;;14.98;100.00;95102.38;5076874;28;20029;-90
2022/10/19 05:57:25;;;;;;;13.07;6.95;;;;;;;15.01;100.00;95101.03;5078035;28;20021;-91
2022/10/19 05:59:50;;;;;;;16.02;7.43;;;;;;;15.01;100.00;95106.31;5077386;28;20522;-89
2022/10/19 06:02:16;;;;;;;16.08;6.47;;;;;;;14.98;100.00;95112.94;5076899;28;20066;-90
2022/10/19 06:04:43;;;;;;;14.32;7.15;;;;;;;15.15;100.00;95111.75;5077709;28;20337;-91
2022/10/19 06:07:09;;;;;;;14.90;6.97;;;;;;;15.12;100.00;95107.81;5076951;28;20333;-90
2022/10/19 06:09:35;;;;;;;16.35;7.65;;;;;;;14.98;100.00;95110.28;5076822;28;20028;-90
2022/10/19 06:12:02;;;;;;;17.02;7.80;;;;;;;15.15;100.00;95116.25;5076622;28;20017;-90
2022/10/19 06:14:28;;;;;;;17.98;7.68;;;;;;;15.01;100.00;95122.16;5092877;28;20052;-90
2022/10/19 06:16:53;;;;;;;30.35;7.88;;;;;;;15.09;100.00;95123.41;5076404;28;20514;-90
2022/10/19 06:19:18;;;;;;;17.25;7.53;;;;;;;15.36;100.00;95119.47;5076165;28;20433;-90
2022/10/19 06:21:44;;;;;;;12.57;6.78;;;;;;;15.41;100.00;95114.13;5076569;28;20032;-90
2022/10/19 06:24:10;;;;;;;26.55;7.13;;;;;;;15.51;100.00;95108.00;5076063;28;20137;-90
2022/10/19 06:26:36;;;;;;;14.90;6.90;;;;;;;15.50;100.00;95111.69;5093070;28;20102;-90
2022/10/19 06:29:18;;;;;;;15.23;6.93;;;;;;;15.64;100.00;95112.59;5076367;28;20025;-90
2022/10/19 06:31:45;;;;;;;12.25;6.65;;;;;;;15.76;100.00;95114.84;5076131;28;20395;-90
2022/10/19 06:34:11;;;;;;;20.73;7.35;;;;;;;15.88;100.00;95116.31;5076134;28;20039;-90
2022/10/19 06:36:36;;;;;;;11.48;6.40;;;;;;;15.99;100.00;95114.34;5076982;28;20032;-90
2022/10/19 06:39:07;;;;;;;11.55;5.90;;;;;;;16.14;100.00;95119.44;5092724;28;20062;-90
2022/10/19 06:41:33;;;;;;;16.90;6.53;;;;;;;16.15;100.00;95121.03;5076053;28;20020;-91
2022/10/19 06:43:59;;;;;;;13.73;6.43;;;;;;;16.30;100.00;95124.53;5076111;28;20081;-89
2022/10/19 06:46:25;;;;;;;12.50;6.80;;;;;;;16.40;100.00;95119.91;5076078;28;20024;-90
2022/10/19 06:48:52;;;;;;;15.07;7.63;;;;;;;16.42;100.00;95124.13;5075905;28;20020;-90
2022/10/19 06:51:18;;;;;;;18.23;6.97;;;;;;;16.56;100.00;95118.91;5092514;28;20425;-90
2022/10/19 06:53:44;;;;;;;13.00;6.07;;;;;;;16.61;100.00;95129.41;5075948;28;20115;-91
2022/10/19 06:56:09;;;;;;;16.95;7.00;;;;;;;16.63;100.00;95130.69;5075780;28;20020;-91
2022/10/19 06:58:36;;;;;;;18.60;6.47;;;;;;;16.77;100.00;95128.09;5075535;28;20034;-90
2022/10/19 07:01:02;;;;;;;14.35;6.43;;;;;;;16.79;100.00;95136.56;5075556;28;20031;-90
2022/10/19 07:03:28;;;;;;;13.13;6.82;;;;;;;16.78;100.00;95137.63;5092768;28;20033;-90
2022/10/19 07:05:55;;;;;;;11.25;6.25;;;;;;;16.91;100.00;95132.66;5075711;28;20436;-90
2022/10/19 07:08:22;;;;;;;14.98;6.90;;;;;;;16.93;100.00;95133.97;5059349;28;20330;-90
2022/10/19 07:10:52;;;;;;;10.52;6.35;;;;;;;17.06;100.00;95142.28;5092504;28;20123;-91
2022/10/19 07:13:18;;;;;;;26.25;7.18;;;;;;;17.10;100.00;95140.63;5075401;28;20024;-90
2022/10/19 07:15:44;;;;;;;15.25;6.13;;;;;;;17.16;100.00;95141.31;5075380;28;20123;-90
2022/10/19 07:18:09;;;;;;;13.35;6.57;;;;;;;17.26;100.00;95146.47;5075679;28;20115;-91
2022/10/19 07:20:34;;;;;;;14.68;6.55;;;;;;;17.33;100.00;95140.78;5075300;28;20357;-91
2022/10/19 07:23:02;;;;;;;15.80;6.28;;;;;;;17.19;100.00;95140.72;5075536;28;20031;-91
2022/10/19 07:25:29;;;;;;;23.92;7.78;;;;;;;17.12;100.00;95149.06;5075347;28;20337;-90
2022/10/19 07:27:54;;;;;;;21.63;8.77;;;;;;;17.09;100.00;95146.97;5078715;28;20040;-90
2022/10/19 07:30:20;;;;;;;15.50;7.22;;;;;;;17.32;100.00;95139.22;5062886;28;20025;-90
2022/10/19 07:32:45;;;;;;;15.45;6.97;;;;;;;17.26;100.00;95146.47;5079614;28;20444;-91
2022/10/19 07:35:11;;;;;;;17.38;7.22;;;;;;;17.44;100.00;95157.28;5079246;28;20033;-90
2022/10/19 07:37:36;;;;;;;15.48;6.55;;;;;;;17.59;100.00;95154.38;5079346;28;20024;-90
2022/10/19 07:40:02;;;;;;;20.35;7.07;;;;;;;17.65;100.00;95155.84;5096084;28;20034;-90
2022/10/19 07:42:29;;;;;;;18.42;7.10;;;;;;;17.69;100.00;95153.38;5080324;28;20432;-90
2022/10/19 07:44:55;;;;;;;17.52;7.07;;;;;;;17.59;100.00;95149.06;5079187;28;20051;-91
2022/10/19 07:47:20;;;;;;;15.65;6.80;;;;;;;17.75;100.00;95154.09;5079380;28;20058;-89
2022/10/19 07:49:46;;;;;;;15.23;6.70;;;;;;;17.60;100.00;95147.97;5079382;28;20028;-90
2022/10/19 07:52:11;;;;;;;13.93;6.40;;;;;;;17.77;100.00;95155.38;5079007;28;20444;-90
2022/10/19 07:54:37;;;;;;;18.35;7.00;;;;;;;17.74;100.00;95152.50;5096182;28;20028;-90
2022/10/19 07:57:02;;;;;;;14.35;6.75;;;;;;;17.94;100.00;95156.66;5062447;28;20028;-90
2022/10/19 07:59:28;;;;;;;13.43;6.57;;;;;;;18.14;100.00;95149.38;5080067;28;20421;-89
2022/10/19 08:01:54;;;;;;;26.98;7.20;;;;;;;18.17;100.00;95146.94;5079825;28;20120;-89
2022/10/19 08:04:20;;;;;;;12.95;6.63;;;;;;;18.26;100.00;95151.56;5095948;28;20035;-89
2022/10/19 08:06:45;;;;;;;19.00;7.18;;;;;;;18.29;100.00;95148.31;5079257;28;20333;-90
2022/10/19 08:09:11;;;;;;;20.85;7.10;;;;;;;18.37;100.00;95156.34;5078687;28;20028;-89
2022/10/19 08:11:36;;;;;;;15.57;6.88;;;;;;;18.16;100.00;95145.38;5079090;28;20345;-90
2022/10/19 08:14:02;;;;;;;13.80;7.05;;;;;;;18.25;100.00;95142.03;5079756;28;20032;-90
2022/10/19 08:16:31;;;;;;;16.48;7.00;;;;;;;18.23;100.00;95145.78;5078588;28;20039;-89
2022/10/19 08:19:00;;;;;;;15.88;7.47;;;;;;;18.47;100.00;95146.63;5079624;28;20078;-89
2022/10/19 08:21:27;;;;;;;12.82;6.30;;;;;;;18.51;100.00;95144.94;5078637;28;20052;-89
2022/10/19 08:23:53;;;;;;;14.07;6.57;;;;;;;18.60;100.00;95143.16;5078684;28;20357;-90
2022/10/19 08:26:18;;;;;;;16.92;7.15;;;;;;;18.29;100.00;95143.81;5078352;28;20029;-90
2022/10/19 08:28:44;;;;;;;14.48;7.22;;;;;;;18.63;100.00;95145.19;5095162;28;20104;-90
2022/10/19 08:31:11;;;;;;;19.65;7.25;;;;;;;18.62;100.00;95137.53;5078345;28;20032;-90
2022/10/19 08:33:37;;;;;;;19.65;7.40;;;;;;;18.49;100.00;95144.44;5078409;28;20107;-90
2022/10/19 08:36:06;;;;;;;15.63;7.00;;;;;;;18.68;100.00;95139.00;5095279;28;20461;-91
2022/10/19 08:38:39;;;;;;;25.15;7.00;;;;;;;18.85;100.00;95151.59;5078109;28;20036;-91
2022/10/19 08:41:26;;;;;;;17.87;7.47;;;;;;;19.05;100.00;95155.69;5078392;28;20028;-91
2022/10/19 08:44:15;;;;;;;17.92;7.18;;;;;;;19.11;100.00;95151.03;5095999;28;20028;-90
2022/10/19 08:46:52;;;;;;;16.15;7.55;;;;;;;19.20;100.00;95154.53;5078514;28;20024;-90
2022/10/19 08:49:24;;;;;;;20.45;8.10;;;;;;;19.38;100.00;95156.53;5079152;28;20067;-90
2022/10/19 08:51:56;;;;;;;16.85;6.95;;;;;;;19.49;100.00;95150.66;5094820;28;20055;-90
2022/10/19 08:54:23;;;;;;;21.77;7.88;;;;;;;19.59;100.00;95151.50;5078073;28;20111;-90
2022/10/19 08:57:10;;;;;;;18.98;7.20;;;;;;;19.63;100.00;95155.09;5078025;28;20040;-91
2022/10/19 09:00:04;;;;;;;17.75;6.82;;;;;;;19.74;100.00;95150.28;5079245;28;20408;-91
2022/10/19 09:03:01;;;;;;;23.58;10.35;;;;;;;19.95;100.00;95150.56;5094663;28;20059;-90
2022/10/19 09:05:41;;;;;;;24.90;9.68;;;;;;;19.84;100.00;95150.03;5061398;28;20023;-90
2022/10/19 09:08:11;;;;;;;24.55;10.75;;;;;;;20.05;100.00;95154.81;5094521;28;20025;-91
2022/10/19 09:10:43;;;;;;;23.52;9.98;;;;;;;20.20;100.00;95141.06;5061189;28;20359;-91
2022/10/19 09:13:24;;;;;;;19.00;9.20;;;;;;;20.43;100.00;95151.63;5077805;28;20031;-91
2022/10/19 09:15:51;;;;;;;19.50;9.48;;;;;;;20.38;100.00;95146.44;5078806;28;20025;-90
2022/10/19 09:18:23;;;;;;;30.67;13.85;;;;;;;20.34;100.00;95146.28;5077381;28;20047;-90
2022/10/19 09:20:50;;;;;;;21.08;12.50;;;;;;;20.63;100.00;95149.44;5060751;28;20055;-89
2022/10/19 09:23:20;;;;;;;29.38;11.27;;;;;;;20.66;100.00;95143.50;5061061;28;20123;-90
2022/10/19 09:25:47;;;;;;;31.33;12.40;;;;;;;20.75;100.00;95144.28;5060736;28;20081;-90
2022/10/19 09:28:26;;;;;;;24.27;13.30;;;;;;;20.69;100.00;95140.22;5077417;28;20028;-91
2022/10/19 09:30:53;;;;;;;22.00;10.85;;;;;;;20.87;100.00;95135.72;5076977;28;20032;-90
2022/10/19 09:33:26;;;;;;;23.13;10.80;;;;;;;20.88;100.00;95136.47;5060878;28;20028;-90
2022/10/19 09:35:52;;;;;;;22.52;11.30;;;;;;;20.96;100.00;95135.69;5060220;28;20021;-89
2022/10/19 09:38:20;;;;;;;18.60;9.88;;;;;;;20.99;100.00;95136.94;5077778;28;20023;-90
2022/10/19 09:40:45;;;;;;;19.00;9.25;;;;;;;21.08;100.00;95135.06;5077054;28;20032;-89
2022/10/19 09:43:20;;;;;;;23.15;9.18;;;;;;;21.05;100.00;95130.34;5077159;28;20024;-90
2022/10/19 09:46:03;;;;;;;16.70;9.30;;;;;;;21.19;100.00;95135.50;5078432;28;20070;-90
2022/10/19 09:48:50;;;;;;;20.05;9.32;;;;;;;21.07;100.00;95130.03;5094272;28;20030;-90
2022/10/19 09:51:17;;;;;;;24.75;9.02;;;;;;;21.19;100.00;95135.50;5076382;28;20047;-90
2022/10/19 09:53:46;;;;;;;18.10;8.38;;;;;;;21.12;100.00;95135.97;5093507;28;20033;-91
2022/10/19 09:56:20;;;;;;;16.88;9.18;;;;;;;21.38;100.00;95137.03;5093400;28;20028;-92
2022/10/19 09:58:49;;;;;;;23.55;10.57;;;;;;;21.26;100.00;95132.34;5060006;28;20118;-91
2022/10/19 10:01:28;;;;;;;20.77;10.25;;;;;;;21.52;100.00;95136.84;5093641;28;20024;-91
2022/10/19 10:04:12;;;;;;;19.75;9.88;;;;;;;21.40;100.00;95137.50;5076686;28;20472;-92
2022/10/19 10:06:39;;;;;;;20.55;10.82;;;;;;;21.26;100.00;95135.81;5076581;28;20384;-90
2022/10/19 10:09:05;;;;;;;21.88;10.68;;;;;;;21.04;100.00;95129.56;5076612;28;20046;-91
2022/10/19 10:11:37;;;;;;;24.13;10.73;;;;;;;21.39;100.00;95128.72;5059760;28;20345;-90
2022/10/19 10:14:24;;;;;;;22.02;9.60;;;;;;;21.75;100.00;95129.41;5060191;28;20032;-90
2022/10/19 10:16:55;;;;;;;18.90;8.82;;;;;;;21.87;100.00;95128.72;5076294;28;20079;-90
2022/10/19 10:19:20;;;;;;;17.73;8.88;;;;;;;21.97;100.00;95127.59;5076705;28;20024;-91
2022/10/19 10:21:53;;;;;;;18.10;9.35;;;;;;;21.59;100.00;95121.91;5076251;28;20381;-91
2022/10/19 10:24:58;;;;;;;14.83;8.60;;;;;;;22.02;100.00;95125.53;5076149;28;20033;-90
2022/10/19 10:27:52;;;;;;;16.95;8.15;;;;;;;22.22;100.00;95125.09;5060532;28;20418;-92
2022/10/19 10:30:18;;;;;;;15.40;9.10;;;;;;;22.11;99.50;95125.50;5076049;28;20051;-91
2022/10/19 10:32:49;;;;;;;19.60;8.73;;;;;;;22.02;100.00;95122.06;5075995;28;20028;-92
2022/10/19 10:35:34;;;;;;;17.92;8.20;;;;;;;22.11;100.00;95122.03;5075822;28;20123;-91
2022/10/19 10:38:22;;;;;;;18.52;7.90;;;;;;;22.07;97.90;95119.22;5084683;28;20040;-92
2022/10/19 10:40:53;;;;;;;14.77;7.68;;;;;;;22.20;87.44;95116.63;5076015;28;20035;-91
2022/10/19 10:43:22;;;;;;;17.58;7.63;;;;;;;22.29;90.35;95114.69;5087025;28;20104;-91
2022/10/19 10:45:51;;;;;;;16.48;7.80;;;;;;;22.50;86.68;95120.09;5109456;28;20342;-91
2022/10/19 10:48:31;;;;;;;14.75;8.45;;;;;;;22.59;89.05;95117.34;5059531;28;20024;-91
2022/10/19 10:50:58;;;;;;;15.15;7.78;;;;;;;22.86;89.55;95115.25;5075869;28;20333;-91
2022/10/19 10:53:34;;;;;;;16.45;9.45;;;;;;;22.96;83.80;95112.19;5076038;28;20468;-90
2022/10/19 10:56:00;;;;;;;18.60;10.00;;;;;;;23.07;87.91;95109.06;5076723;28;20021;-92
2022/10/19 10:58:42;;;;;;;25.65;12.13;;;;;;;22.96;81.30;95112.19;5075635;28;20430;-90
2022/10/19 11:01:15;;;;;;;27.23;11.68;;;;;;;22.99;85.17;95103.50;5075857;28;20024;-91
2022/10/19 11:03:47;;;;;;;20.23;9.52;;;;;;;23.16;88.60;95099.09;5059327;28;20333;-90
2022/10/19 11:06:13;;;;;;;21.65;12.05;;;;;;;23.19;86.18;95095.75;5075600;28;20043;-91
2022/10/19 11:08:49;;;;;;;26.85;12.60;;;;;;;23.19;87.74;95098.44;5058951;28;20032;-92
2022/10/19 11:11:17;;;;;;;20.20;12.30;;;;;;;23.15;85.06;95094.88;5075899;28;20029;-91
2022/10/19 11:14:25;;;;;;;21.33;12.77;;;;;;;23.17;91.95;95084.63;5075540;28;20326;-90
2022/10/19 11:16:51;;;;;;;25.58;12.13;;;;;;;23.19;86.70;95074.38;5027546;28;20040;-92
2022/10/19 11:19:36;;;;;;;21.92;12.27;;;;;;;23.44;87.49;95069.09;5058796;28;20062;-90
2022/10/19 11:22:12;;;;;;;19.92;11.85;;;;;;;23.39;84.19;95072.00;5058762;28;20032;-90
2022/10/19 11:24:58;;;;;;;23.83;12.93;;;;;;;23.08;88.24;95063.34;5075384;28;20070;-91
2022/10/19 11:27:50;;;;;;;26.27;11.32;;;;;;;23.40;79.73;95060.19;5076023;28;20048;-92
2022/10/19 11:30:19;;;;;;;19.25;11.85;;;;;;;23.45;79.18;95062.63;5076650;28;20039;-90
2022/10/19 11:32:57;;;;;;;26.75;12.85;;;;;;;23.52;83.49;95056.75;5092425;28;20110;-90
2022/10/19 11:35:44;;;;;;;23.10;12.43;;;;;;;23.34;84.63;95053.50;5075385;28;20032;-91
2022/10/19 11:38:37;;;;;;;22.58;11.02;;;;;;;23.56;77.60;95055.75;5058911;28;20032;-91
2022/10/19 11:41:05;;;;;;;17.63;9.05;;;;;;;23.46;71.49;95047.41;5058627;28;20122;-91
2022/10/19 11:43:54;;;;;;;24.33;11.20;;;;;;;23.59;76.08;95046.25;5075661;28;20032;-92
2022/10/19 11:46:30;;;;;;;22.38;10.75;;;;;;;23.68;78.57;95043.50;5055805;28;20450;-91
2022/10/19 11:49:30;;;;;;;22.02;11.73;;;;;;;23.57;75.31;95048.50;5075186;28;20032;-91
2022/10/19 11:52:17;;;;;;;22.92;9.80;;;;;;;23.80;76.37;95045.38;5074948;28;20020;-90
2022/10/19 11:54:53;;;;;;;17.25;9.68;;;;;;;23.97;80.07;95034.41;5075275;28;20048;-91